Capitol Logistics 116


KLAX
Los Angeles International Airport
Los Angeles, California, US
PHNL
Daniel K Inouye International Airport
Honolulu, Hawaii, US

Activity Log

Date Flight Route Aircraft Duration
11/22/2019 CPX116 SUMMR1 DINTY DUETS R576 DENNS MAGGI3 B744 5h 49m
07/12/2019 CPX226 SUMMR1 DINTY DUETS R576 DENNS MAGGI3 B763 5h 37m
06/24/2019 CPX226 SUMMR1 DINTY DUETS R576 DENNS MAGGI3 B763 5h 50m
04/02/2019 CPX226 SUMMR1 DINTY DUETS R576 DENNS MAGGI3 B763 6h 04m
03/27/2019 CPX116 SUMMR1 DINTY DUETS R576 DENNS MAGGI3 B744 5h 50m
01/19/2019 CPX226 VTU8 DINTY DUETS R576 DIALO/N0477F320 R576 DENNS MAGGI3 B763 5h 46m
12/24/2018 CPX116 SUMMR1 DINTY DUETS R576 DENNS MAGGI3 MD11 5h 12m
12/03/2018 CPX126 DINTY R576 DENNS B763 5h 40m

Route Details

Aircraft Information
Primary: Boeing 747-400BCF
Backup: Boeing 777-200LRF
Route Data
Distance: 2267nm
Sched. Duration: 6h 00m
Avg. Duration: 5h 49m (-51m)
Times Flown: 8
Recm'd Route: SUMMR1 DINTY DUETS R576 DENNS MAGGI3
Planned Altitude: 32,000ft
Origin Wx: KLAX 311253Z 00000KT 10SM FEW160 SCT200 BKN280 14/09 A3005 RMK AO2 SLP176 T01390089
Dest. Wx: PHNL 311253Z 07008KT 10SM FEW025 BKN210 22/17 A3000 RMK AO2 SLP160 T02220167
Notes:

Financial History
Total Freight: 974,122lbs
Average Load: 121,765lbs/flt
Fuel Used: 655,773lbs
Avg. Fuel Used: 81,972lbs/flt
Fuel Expense: $776,745
Avg. Fuel Expense: $97,093
Avg. Fuel Cost: $1.19/lbs
Total Gross Income: $1,233,107
Pilot Pay: $1,682
Total Expenses: $133,592
Total Revenue: $312,355
Average Revenue: $154,138.31